sensor_id;sensor_type;location;lat;lon;timestamp;temperature;humidity
6462;DHT22;3264;42.862;25.098;2023-04-15T00:01:44;9.30;99.90
6462;DHT22;3264;42.862;25.098;2023-04-15T00:04:14;9.30;99.90
6462;DHT22;3264;42.862;25.098;2023-04-15T00:06:50;9.40;99.90
6462;DHT22;3264;42.862;25.098;2023-04-15T00:09:20;9.40;99.90
6462;DHT22;3264;42.862;25.098;2023-04-15T00:11:49;9.30;99.90
6462;DHT22;3264;42.862;25.098;2023-04-15T00:14:18;9.30;99.90
6462;DHT22;3264;42.862;25.098;2023-04-15T00:16:48;9.30;99.90
6462;DHT22;3264;42.862;25.098;2023-04-15T00:19:23;9.30;99.90
6462;DHT22;3264;42.862;25.098;2023-04-15T00:21:53;9.20;99.90
6462;DHT22;3264;42.862;25.098;2023-04-15T00:24:22;9.30;99.90
6462;DHT22;3264;42.862;25.098;2023-04-15T00:26:51;9.20;99.90
6462;DHT22;3264;42.862;25.098;2023-04-15T00:29:20;9.10;99.90
6462;DHT22;3264;42.862;25.098;2023-04-15T00:31:49;9.10;99.90
6462;DHT22;3264;42.862;25.098;2023-04-15T00:34:18;9.10;99.90
6462;DHT22;3264;42.862;25.098;2023-04-15T00:36:49;9.10;99.90
6462;DHT22;3264;42.862;25.098;2023-04-15T00:39:19;9.10;99.90
6462;DHT22;3264;42.862;25.098;2023-04-15T00:41:49;9.20;99.90
6462;DHT22;3264;42.862;25.098;2023-04-15T00:44:18;9.20;99.90
6462;DHT22;3264;42.862;25.098;2023-04-15T00:46:47;9.30;99.90
6462;DHT22;3264;42.862;25.098;2023-04-15T00:49:18;9.20;99.90
6462;DHT22;3264;42.862;25.098;2023-04-15T00:51:49;9.10;99.90
6462;DHT22;3264;42.862;25.098;2023-04-15T00:54:18;9.10;99.90
6462;DHT22;3264;42.862;25.098;2023-04-15T00:56:48;9.10;99.90
6462;DHT22;3264;42.862;25.098;2023-04-15T00:59:18;9.10;99.90
6462;DHT22;3264;42.862;25.098;2023-04-15T01:01:48;9.10;99.90
6462;DHT22;3264;42.862;25.098;2023-04-15T01:04:17;9.00;99.90
6462;DHT22;3264;42.862;25.098;2023-04-15T01:06:48;9.00;99.90
6462;DHT22;3264;42.862;25.098;2023-04-15T01:09:18;9.00;99.90
6462;DHT22;3264;42.862;25.098;2023-04-15T01:11:47;9.00;99.90
6462;DHT22;3264;42.862;25.098;2023-04-15T01:14:14;9.00;99.90
6462;DHT22;3264;42.862;25.098;2023-04-15T01:16:44;9.00;99.90
6462;DHT22;3264;42.862;25.098;2023-04-15T01:19:14;8.90;99.90
6462;DHT22;3264;42.862;25.098;2023-04-15T01:21:44;8.90;99.90
6462;DHT22;3264;42.862;25.098;2023-04-15T01:24:17;8.80;99.90
6462;DHT22;3264;42.862;25.098;2023-04-15T01:26:47;8.80;99.90
6462;DHT22;3264;42.862;25.098;2023-04-15T01:29:17;8.80;99.90
6462;DHT22;3264;42.862;25.098;2023-04-15T01:31:50;8.80;99.90
6462;DHT22;3264;42.862;25.098;2023-04-15T01:34:20;8.80;99.90
6462;DHT22;3264;42.862;25.098;2023-04-15T01:36:49;8.90;99.90
6462;DHT22;3264;42.862;25.098;2023-04-15T01:39:18;9.00;99.90
6462;DHT22;3264;42.862;25.098;2023-04-15T01:41:48;8.90;99.90
6462;DHT22;3264;42.862;25.098;2023-04-15T01:44:18;9.00;99.90
6462;DHT22;3264;42.862;25.098;2023-04-15T01:46:47;8.90;99.90
6462;DHT22;3264;42.862;25.098;2023-04-15T01:49:17;8.90;99.90
6462;DHT22;3264;42.862;25.098;2023-04-15T01:51:46;8.70;99.90
6462;DHT22;3264;42.862;25.098;2023-04-15T01:54:15;8.70;99.90
6462;DHT22;3264;42.862;25.098;2023-04-15T01:56:44;8.80;99.90
6462;DHT22;3264;42.862;25.098;2023-04-15T01:59:14;8.80;99.90
6462;DHT22;3264;42.862;25.098;2023-04-15T02:01:44;8.90;99.90
6462;DHT22;3264;42.862;25.098;2023-04-15T02:04:14;8.80;99.90
6462;DHT22;3264;42.862;25.098;2023-04-15T02:06:44;8.70;99.90
6462;DHT22;3264;42.862;25.098;2023-04-15T02:09:13;8.60;99.90
6462;DHT22;3264;42.862;25.098;2023-04-15T02:11:43;8.60;99.90
6462;DHT22;3264;42.862;25.098;2023-04-15T02:14:14;8.60;99.90
6462;DHT22;3264;42.862;25.098;2023-04-15T02:16:43;8.70;99.90
6462;DHT22;3264;42.862;25.098;2023-04-15T02:19:12;8.70;99.90
6462;DHT22;3264;42.862;25.098;2023-04-15T02:21:42;8.60;99.90
6462;DHT22;3264;42.862;25.098;2023-04-15T02:24:12;8.60;99.90
6462;DHT22;3264;42.862;25.098;2023-04-15T02:26:41;8.60;99.90
6462;DHT22;3264;42.862;25.098;2023-04-15T02:29:10;8.60;99.90
6462;DHT22;3264;42.862;25.098;2023-04-15T02:31:41;8.60;99.90
6462;DHT22;3264;42.862;25.098;2023-04-15T02:34:11;8.70;99.90
6462;DHT22;3264;42.862;25.098;2023-04-15T02:36:40;8.70;99.90
6462;DHT22;3264;42.862;25.098;2023-04-15T02:39:10;8.70;99.90
6462;DHT22;3264;42.862;25.098;2023-04-15T02:41:41;8.60;99.90
6462;DHT22;3264;42.862;25.098;2023-04-15T02:44:14;8.70;99.90
6462;DHT22;3264;42.862;25.098;2023-04-15T02:46:45;8.60;99.90
6462;DHT22;3264;42.862;25.098;2023-04-15T02:49:18;8.50;99.90
6462;DHT22;3264;42.862;25.098;2023-04-15T02:51:46;8.40;99.90
6462;DHT22;3264;42.862;25.098;2023-04-15T02:54:16;8.40;99.90
6462;DHT22;3264;42.862;25.098;2023-04-15T02:56:45;8.40;99.90
6462;DHT22;3264;42.862;25.098;2023-04-15T02:59:15;8.40;99.90
6462;DHT22;3264;42.862;25.098;2023-04-15T03:01:46;8.40;99.90
6462;DHT22;3264;42.862;25.098;2023-04-15T03:04:15;8.50;99.90
6462;DHT22;3264;42.862;25.098;2023-04-15T03:06:43;8.50;99.90
6462;DHT22;3264;42.862;25.098;2023-04-15T03:09:12;8.40;99.90
6462;DHT22;3264;42.862;25.098;2023-04-15T03:11:41;8.40;99.90
6462;DHT22;3264;42.862;25.098;2023-04-15T03:14:10;8.40;99.90
6462;DHT22;3264;42.862;25.098;2023-04-15T03:16:39;8.40;99.90
6462;DHT22;3264;42.862;25.098;2023-04-15T03:19:09;8.40;99.90
6462;DHT22;3264;42.862;25.098;2023-04-15T03:21:38;8.50;99.90
6462;DHT22;3264;42.862;25.098;2023-04-15T03:24:07;8.50;99.90
6462;DHT22;3264;42.862;25.098;2023-04-15T03:26:36;8.40;99.90
6462;DHT22;3264;42.862;25.098;2023-04-15T03:29:06;8.40;99.90
6462;DHT22;3264;42.862;25.098;2023-04-15T03:31:35;8.50;99.90
6462;DHT22;3264;42.862;25.098;2023-04-15T03:34:09;8.40;99.90
6462;DHT22;3264;42.862;25.098;2023-04-15T03:36:39;8.40;99.90
6462;DHT22;3264;42.862;25.098;2023-04-15T03:39:08;8.30;99.90
6462;DHT22;3264;42.862;25.098;2023-04-15T03:41:37;8.20;99.90
6462;DHT22;3264;42.862;25.098;2023-04-15T03:44:05;8.30;99.90
6462;DHT22;3264;42.862;25.098;2023-04-15T03:46:34;8.40;99.90
6462;DHT22;3264;42.862;25.098;2023-04-15T03:49:09;8.40;99.90
6462;DHT22;3264;42.862;25.098;2023-04-15T03:51:38;8.40;99.90
6462;DHT22;3264;42.862;25.098;2023-04-15T03:54:07;8.50;99.90
6462;DHT22;3264;42.862;25.098;2023-04-15T03:56:37;8.50;99.90
6462;DHT22;3264;42.862;25.098;2023-04-15T03:59:04;8.50;99.90
6462;DHT22;3264;42.862;25.098;2023-04-15T04:01:34;8.50;99.90
6462;DHT22;3264;42.862;25.098;2023-04-15T04:04:01;8.50;99.90
6462;DHT22;3264;42.862;25.098;2023-04-15T04:06:30;8.50;99.90
6462;DHT22;3264;42.862;25.098;2023-04-15T04:08:58;8.50;99.90
6462;DHT22;3264;42.862;25.098;2023-04-15T04:11:26;8.40;99.90
6462;DHT22;3264;42.862;25.098;2023-04-15T04:13:55;8.40;99.90
6462;DHT22;3264;42.862;25.098;2023-04-15T04:16:25;8.50;99.90
6462;DHT22;3264;42.862;25.098;2023-04-15T04:18:53;8.50;99.90
6462;DHT22;3264;42.862;25.098;2023-04-15T04:21:20;8.60;99.90
6462;DHT22;3264;42.862;25.098;2023-04-15T04:23:50;8.50;99.90
6462;DHT22;3264;42.862;25.098;2023-04-15T04:26:19;8.50;99.90
6462;DHT22;3264;42.862;25.098;2023-04-15T04:28:47;8.50;99.90
6462;DHT22;3264;42.862;25.098;2023-04-15T04:31:15;8.50;99.90
6462;DHT22;3264;42.862;25.098;2023-04-15T04:33:43;8.60;99.90
6462;DHT22;3264;42.862;25.098;2023-04-15T04:36:12;8.60;99.90
6462;DHT22;3264;42.862;25.098;2023-04-15T04:38:40;8.60;99.90
6462;DHT22;3264;42.862;25.098;2023-04-15T04:41:09;8.70;99.90
6462;DHT22;3264;42.862;25.098;2023-04-15T04:43:37;8.80;99.90
6462;DHT22;3264;42.862;25.098;2023-04-15T04:46:06;8.80;99.90
6462;DHT22;3264;42.862;25.098;2023-04-15T04:48:34;8.90;99.90
6462;DHT22;3264;42.862;25.098;2023-04-15T04:51:04;8.90;99.90
6462;DHT22;3264;42.862;25.098;2023-04-15T04:53:32;8.90;99.90
6462;DHT22;3264;42.862;25.098;2023-04-15T04:56:02;9.00;99.90
6462;DHT22;3264;42.862;25.098;2023-04-15T04:58:33;9.00;99.90
6462;DHT22;3264;42.862;25.098;2023-04-15T05:01:02;8.90;99.90
6462;DHT22;3264;42.862;25.098;2023-04-15T05:03:30;9.00;99.90
6462;DHT22;3264;42.862;25.098;2023-04-15T05:05:58;9.00;99.90
6462;DHT22;3264;42.862;25.098;2023-04-15T05:08:25;9.00;99.90
6462;DHT22;3264;42.862;25.098;2023-04-15T05:10:53;9.10;99.90
6462;DHT22;3264;42.862;25.098;2023-04-15T05:13:22;9.10;99.90
6462;DHT22;3264;42.862;25.098;2023-04-15T05:15:53;9.20;99.90
6462;DHT22;3264;42.862;25.098;2023-04-15T05:18:24;9.20;99.90
6462;DHT22;3264;42.862;25.098;2023-04-15T05:20:52;9.10;99.90
6462;DHT22;3264;42.862;25.098;2023-04-15T05:23:20;9.40;99.90
6462;DHT22;3264;42.862;25.098;2023-04-15T05:25:49;9.70;99.90
6462;DHT22;3264;42.862;25.098;2023-04-15T05:28:18;9.90;99.90
6462;DHT22;3264;42.862;25.098;2023-04-15T05:30:47;10.00;99.90
6462;DHT22;3264;42.862;25.098;2023-04-15T05:33:18;10.20;99.90
6462;DHT22;3264;42.862;25.098;2023-04-15T05:35:47;10.10;99.90
6462;DHT22;3264;42.862;25.098;2023-04-15T05:38:17;10.30;99.90
6462;DHT22;3264;42.862;25.098;2023-04-15T05:40:45;10.60;99.90
6462;DHT22;3264;42.862;25.098;2023-04-15T05:43:15;10.90;99.90
6462;DHT22;3264;42.862;25.098;2023-04-15T05:45:42;11.10;99.90
6462;DHT22;3264;42.862;25.098;2023-04-15T05:48:10;11.00;99.90
6462;DHT22;3264;42.862;25.098;2023-04-15T05:50:42;11.00;99.90
6462;DHT22;3264;42.862;25.098;2023-04-15T05:53:09;10.50;99.90
6462;DHT22;3264;42.862;25.098;2023-04-15T05:55:37;10.60;99.90
6462;DHT22;3264;42.862;25.098;2023-04-15T05:58:07;11.10;99.90
6462;DHT22;3264;42.862;25.098;2023-04-15T06:00:38;11.50;99.90
6462;DHT22;3264;42.862;25.098;2023-04-15T06:03:05;12.10;99.90
6462;DHT22;3264;42.862;25.098;2023-04-15T06:05:35;12.60;99.90
6462;DHT22;3264;42.862;25.098;2023-04-15T06:08:06;12.60;99.90
6462;DHT22;3264;42.862;25.098;2023-04-15T06:10:35;12.80;99.90
6462;DHT22;3264;42.862;25.098;2023-04-15T06:13:05;13.00;99.90
6462;DHT22;3264;42.862;25.098;2023-04-15T06:15:34;13.10;99.90
6462;DHT22;3264;42.862;25.098;2023-04-15T06:18:02;12.90;99.90
6462;DHT22;3264;42.862;25.098;2023-04-15T06:20:31;13.30;99.90
6462;DHT22;3264;42.862;25.098;2023-04-15T06:23:01;13.50;99.90
6462;DHT22;3264;42.862;25.098;2023-04-15T06:25:33;13.70;99.90
6462;DHT22;3264;42.862;25.098;2023-04-15T06:28:01;14.10;99.90
6462;DHT22;3264;42.862;25.098;2023-04-15T06:30:28;14.50;99.90
6462;DHT22;3264;42.862;25.098;2023-04-15T06:32:56;14.80;99.90
6462;DHT22;3264;42.862;25.098;2023-04-15T06:35:25;14.40;99.90
6462;DHT22;3264;42.862;25.098;2023-04-15T06:37:54;14.90;99.90
6462;DHT22;3264;42.862;25.098;2023-04-15T06:40:24;14.60;99.90
6462;DHT22;3264;42.862;25.098;2023-04-15T06:42:55;14.90;99.90
6462;DHT22;3264;42.862;25.098;2023-04-15T06:45:24;15.50;99.90
6462;DHT22;3264;42.862;25.098;2023-04-15T06:47:53;15.20;99.40
6462;DHT22;3264;42.862;25.098;2023-04-15T06:50:23;15.30;99.90
6462;DHT22;3264;42.862;25.098;2023-04-15T06:52:52;15.80;99.90
6462;DHT22;3264;42.862;25.098;2023-04-15T06:55:21;15.80;99.00
6462;DHT22;3264;42.862;25.098;2023-04-15T06:57:51;16.30;99.90
6462;DHT22;3264;42.862;25.098;2023-04-15T07:00:22;16.10;94.30
6462;DHT22;3264;42.862;25.098;2023-04-15T07:02:53;16.40;80.20
6462;DHT22;3264;42.862;25.098;2023-04-15T07:05:23;16.70;78.30
6462;DHT22;3264;42.862;25.098;2023-04-15T07:07:51;16.90;79.60
6462;DHT22;3264;42.862;25.098;2023-04-15T07:10:20;17.20;73.90
6462;DHT22;3264;42.862;25.098;2023-04-15T07:12:49;17.00;68.20
6462;DHT22;3264;42.862;25.098;2023-04-15T07:15:17;17.50;73.80
6462;DHT22;3264;42.862;25.098;2023-04-15T07:17:47;17.70;71.60
6462;DHT22;3264;42.862;25.098;2023-04-15T07:20:16;17.70;64.80
6462;DHT22;3264;42.862;25.098;2023-04-15T07:22:45;17.60;65.10
6462;DHT22;3264;42.862;25.098;2023-04-15T07:25:16;17.90;64.80
6462;DHT22;3264;42.862;25.098;2023-04-15T07:27:45;17.80;67.20
6462;DHT22;3264;42.862;25.098;2023-04-15T07:30:14;17.60;68.80
6462;DHT22;3264;42.862;25.098;2023-04-15T07:32:42;17.90;67.30
6462;DHT22;3264;42.862;25.098;2023-04-15T07:35:12;18.30;68.30
6462;DHT22;3264;42.862;25.098;2023-04-15T07:37:42;18.20;63.40
6462;DHT22;3264;42.862;25.098;2023-04-15T07:40:11;18.50;60.60
6462;DHT22;3264;42.862;25.098;2023-04-15T07:42:41;18.80;61.60
6462;DHT22;3264;42.862;25.098;2023-04-15T07:45:12;18.60;63.40
6462;DHT22;3264;42.862;25.098;2023-04-15T07:47:40;18.60;65.80
6462;DHT22;3264;42.862;25.098;2023-04-15T07:50:13;18.70;65.40
6462;DHT22;3264;42.862;25.098;2023-04-15T07:52:43;18.40;59.70
6462;DHT22;3264;42.862;25.098;2023-04-15T07:55:14;18.90;62.90
6462;DHT22;3264;42.862;25.098;2023-04-15T07:57:46;19.10;66.00
6462;DHT22;3264;42.862;25.098;2023-04-15T08:00:16;18.70;58.70
6462;DHT22;3264;42.862;25.098;2023-04-15T08:02:47;18.20;56.20
6462;DHT22;3264;42.862;25.098;2023-04-15T08:05:21;18.70;61.20
6462;DHT22;3264;42.862;25.098;2023-04-15T08:07:50;18.40;56.50
6462;DHT22;3264;42.862;25.098;2023-04-15T08:10:21;19.30;63.00
6462;DHT22;3264;42.862;25.098;2023-04-15T08:12:51;20.10;59.90
6462;DHT22;3264;42.862;25.098;2023-04-15T08:15:20;19.50;55.80
6462;DHT22;3264;42.862;25.098;2023-04-15T08:17:49;19.60;56.50
6462;DHT22;3264;42.862;25.098;2023-04-15T08:20:19;19.60;58.10
6462;DHT22;3264;42.862;25.098;2023-04-15T08:22:50;19.70;56.70
6462;DHT22;3264;42.862;25.098;2023-04-15T08:25:19;19.80;54.20
6462;DHT22;3264;42.862;25.098;2023-04-15T08:27:48;18.50;55.00
6462;DHT22;3264;42.862;25.098;2023-04-15T08:30:16;18.60;59.10
6462;DHT22;3264;42.862;25.098;2023-04-15T08:32:46;17.70;62.10
6462;DHT22;3264;42.862;25.098;2023-04-15T08:35:15;18.20;60.50
6462;DHT22;3264;42.862;25.098;2023-04-15T08:37:45;18.90;60.30
6462;DHT22;3264;42.862;25.098;2023-04-15T08:40:13;18.40;57.80
6462;DHT22;3264;42.862;25.098;2023-04-15T08:42:44;18.80;63.40
6462;DHT22;3264;42.862;25.098;2023-04-15T08:45:18;19.30;66.00
6462;DHT22;3264;42.862;25.098;2023-04-15T08:47:51;18.80;57.70
6462;DHT22;3264;42.862;25.098;2023-04-15T08:50:24;19.10;56.70
6462;DHT22;3264;42.862;25.098;2023-04-15T08:52:58;19.80;58.30
6462;DHT22;3264;42.862;25.098;2023-04-15T08:55:31;19.20;56.00
6462;DHT22;3264;42.862;25.098;2023-04-15T08:58:04;18.60;56.90
6462;DHT22;3264;42.862;25.098;2023-04-15T09:00:34;19.20;57.30
6462;DHT22;3264;42.862;25.098;2023-04-15T09:03:04;19.60;57.30
6462;DHT22;3264;42.862;25.098;2023-04-15T09:05:35;19.60;58.10
6462;DHT22;3264;42.862;25.098;2023-04-15T09:08:05;19.50;57.80
6462;DHT22;3264;42.862;25.098;2023-04-15T09:10:34;20.30;58.70
6462;DHT22;3264;42.862;25.098;2023-04-15T09:13:03;19.80;55.20
6462;DHT22;3264;42.862;25.098;2023-04-15T09:15:33;19.90;63.70
6462;DHT22;3264;42.862;25.098;2023-04-15T09:18:07;20.40;58.20
6462;DHT22;3264;42.862;25.098;2023-04-15T09:20:40;20.90;58.70
6462;DHT22;3264;42.862;25.098;2023-04-15T09:23:15;19.80;52.00
6462;DHT22;3264;42.862;25.098;2023-04-15T09:25:45;20.30;53.80
6462;DHT22;3264;42.862;25.098;2023-04-15T09:28:15;20.60;57.60
6462;DHT22;3264;42.862;25.098;2023-04-15T09:30:55;20.70;56.40
6462;DHT22;3264;42.862;25.098;2023-04-15T09:33:26;20.90;59.70
6462;DHT22;3264;42.862;25.098;2023-04-15T09:35:59;20.10;57.60
6462;DHT22;3264;42.862;25.098;2023-04-15T09:38:31;20.40;60.40
6462;DHT22;3264;42.862;25.098;2023-04-15T09:41:00;19.40;58.10
6462;DHT22;3264;42.862;25.098;2023-04-15T09:43:39;18.60;59.00
6462;DHT22;3264;42.862;25.098;2023-04-15T09:46:08;18.80;58.50
6462;DHT22;3264;42.862;25.098;2023-04-15T09:48:38;19.80;63.10
6462;DHT22;3264;42.862;25.098;2023-04-15T09:51:08;20.90;66.00
6462;DHT22;3264;42.862;25.098;2023-04-15T09:53:37;21.60;61.40
6462;DHT22;3264;42.862;25.098;2023-04-15T09:56:06;20.80;55.40
6462;DHT22;3264;42.862;25.098;2023-04-15T09:58:36;20.00;58.10
6462;DHT22;3264;42.862;25.098;2023-04-15T10:01:07;19.00;57.00
6462;DHT22;3264;42.862;25.098;2023-04-15T10:03:39;18.90;57.80
6462;DHT22;3264;42.862;25.098;2023-04-15T10:06:09;18.80;63.60
6462;DHT22;3264;42.862;25.098;2023-04-15T10:08:41;18.60;60.50
6462;DHT22;3264;42.862;25.098;2023-04-15T10:11:10;19.10;63.80
6462;DHT22;3264;42.862;25.098;2023-04-15T10:13:41;18.20;59.80
6462;DHT22;3264;42.862;25.098;2023-04-15T10:16:15;18.30;66.60
6462;DHT22;3264;42.862;25.098;2023-04-15T10:18:54;18.50;65.20
6462;DHT22;3264;42.862;25.098;2023-04-15T10:21:26;18.40;62.60
6462;DHT22;3264;42.862;25.098;2023-04-15T10:23:59;18.60;63.70
6462;DHT22;3264;42.862;25.098;2023-04-15T10:26:44;18.60;62.70
6462;DHT22;3264;42.862;25.098;2023-04-15T10:29:15;18.40;68.70
6462;DHT22;3264;42.862;25.098;2023-04-15T10:31:47;18.80;61.80
6462;DHT22;3264;42.862;25.098;2023-04-15T10:34:17;19.10;62.60
6462;DHT22;3264;42.862;25.098;2023-04-15T10:36:47;19.50;65.20
6462;DHT22;3264;42.862;25.098;2023-04-15T10:39:41;19.50;64.60
6462;DHT22;3264;42.862;25.098;2023-04-15T10:42:12;19.70;64.10
6462;DHT22;3264;42.862;25.098;2023-04-15T10:44:43;19.10;61.40
6462;DHT22;3264;42.862;25.098;2023-04-15T10:47:15;18.70;61.20
6462;DHT22;3264;42.862;25.098;2023-04-15T10:49:48;19.60;65.20
6462;DHT22;3264;42.862;25.098;2023-04-15T10:52:22;19.80;64.60
6462;DHT22;3264;42.862;25.098;2023-04-15T10:55:02;19.70;60.00
6462;DHT22;3264;42.862;25.098;2023-04-15T10:57:36;20.10;65.50
6462;DHT22;3264;42.862;25.098;2023-04-15T11:00:12;20.40;62.30
6462;DHT22;3264;42.862;25.098;2023-04-15T11:02:46;19.20;59.00
6462;DHT22;3264;42.862;25.098;2023-04-15T11:05:17;18.80;59.80
6462;DHT22;3264;42.862;25.098;2023-04-15T11:07:51;19.20;60.60
6462;DHT22;3264;42.862;25.098;2023-04-15T11:10:53;19.40;60.30
6462;DHT22;3264;42.862;25.098;2023-04-15T11:13:27;19.80;59.70
6462;DHT22;3264;42.862;25.098;2023-04-15T11:16:01;20.30;58.10
6462;DHT22;3264;42.862;25.098;2023-04-15T11:18:35;20.30;60.70
6462;DHT22;3264;42.862;25.098;2023-04-15T11:21:05;19.80;56.90
6462;DHT22;3264;42.862;25.098;2023-04-15T11:23:39;20.00;60.00
6462;DHT22;3264;42.862;25.098;2023-04-15T11:26:13;20.20;57.90
6462;DHT22;3264;42.862;25.098;2023-04-15T11:28:46;20.20;58.50
6462;DHT22;3264;42.862;25.098;2023-04-15T11:31:17;20.50;57.30
6462;DHT22;3264;42.862;25.098;2023-04-15T11:33:55;20.00;56.10
6462;DHT22;3264;42.862;25.098;2023-04-15T11:36:27;19.70;56.30
6462;DHT22;3264;42.862;25.098;2023-04-15T11:38:59;19.80;58.10
6462;DHT22;3264;42.862;25.098;2023-04-15T11:41:32;19.90;57.00
6462;DHT22;3264;42.862;25.098;2023-04-15T11:44:02;20.40;58.80
6462;DHT22;3264;42.862;25.098;2023-04-15T11:46:32;20.90;58.40
6462;DHT22;3264;42.862;25.098;2023-04-15T11:49:26;20.80;55.90
6462;DHT22;3264;42.862;25.098;2023-04-15T11:51:57;21.60;59.00
6462;DHT22;3264;42.862;25.098;2023-04-15T11:54:27;21.90;56.90
6462;DHT22;3264;42.862;25.098;2023-04-15T11:57:00;22.50;57.20
6462;DHT22;3264;42.862;25.098;2023-04-15T11:59:42;22.60;54.60
6462;DHT22;3264;42.862;25.098;2023-04-15T12:02:13;22.60;54.40
6462;DHT22;3264;42.862;25.098;2023-04-15T12:04:44;22.40;55.40
6462;DHT22;3264;42.862;25.098;2023-04-15T12:07:13;22.50;54.10
6462;DHT22;3264;42.862;25.098;2023-04-15T12:09:43;22.80;54.50
6462;DHT22;3264;42.862;25.098;2023-04-15T12:12:29;22.70;54.50
6462;DHT22;3264;42.862;25.098;2023-04-15T12:15:00;23.10;56.50
6462;DHT22;3264;42.862;25.098;2023-04-15T12:17:33;22.90;52.00
6462;DHT22;3264;42.862;25.098;2023-04-15T12:20:07;22.00;51.30
6462;DHT22;3264;42.862;25.098;2023-04-15T12:22:39;22.20;52.60
6462;DHT22;3264;42.862;25.098;2023-04-15T12:25:11;22.10;53.00
6462;DHT22;3264;42.862;25.098;2023-04-15T12:27:51;20.30;49.40
6462;DHT22;3264;42.862;25.098;2023-04-15T12:30:23;21.10;54.60
6462;DHT22;3264;42.862;25.098;2023-04-15T12:32:57;21.30;51.80
6462;DHT22;3264;42.862;25.098;2023-04-15T12:35:27;21.00;48.30
6462;DHT22;3264;42.862;25.098;2023-04-15T12:37:58;21.00;49.90
6462;DHT22;3264;42.862;25.098;2023-04-15T12:40:29;21.00;49.90
6462;DHT22;3264;42.862;25.098;2023-04-15T12:43:12;21.90;52.70
6462;DHT22;3264;42.862;25.098;2023-04-15T12:45:42;22.50;50.90
6462;DHT22;3264;42.862;25.098;2023-04-15T12:48:13;23.20;52.60
6462;DHT22;3264;42.862;25.098;2023-04-15T12:50:43;22.90;49.90
6462;DHT22;3264;42.862;25.098;2023-04-15T12:53:13;22.20;48.60
6462;DHT22;3264;42.862;25.098;2023-04-15T12:55:43;20.90;49.60
6462;DHT22;3264;42.862;25.098;2023-04-15T12:58:14;20.60;51.20
6462;DHT22;3264;42.862;25.098;2023-04-15T13:00:44;21.40;55.00
6462;DHT22;3264;42.862;25.098;2023-04-15T13:03:15;21.70;54.10
6462;DHT22;3264;42.862;25.098;2023-04-15T13:05:46;22.00;54.00
6462;DHT22;3264;42.862;25.098;2023-04-15T13:08:17;21.80;52.30
6462;DHT22;3264;42.862;25.098;2023-04-15T13:10:46;22.60;55.30
6462;DHT22;3264;42.862;25.098;2023-04-15T13:13:18;22.90;53.40
6462;DHT22;3264;42.862;25.098;2023-04-15T13:15:48;22.90;52.80
6462;DHT22;3264;42.862;25.098;2023-04-15T13:18:20;22.60;50.10
6462;DHT22;3264;42.862;25.098;2023-04-15T13:20:51;22.40;49.60
6462;DHT22;3264;42.862;25.098;2023-04-15T13:23:23;22.40;49.50
6462;DHT22;3264;42.862;25.098;2023-04-15T13:25:54;21.70;45.40
6462;DHT22;3264;42.862;25.098;2023-04-15T13:28:27;22.00;51.20
6462;DHT22;3264;42.862;25.098;2023-04-15T13:30:58;21.70;51.10
6462;DHT22;3264;42.862;25.098;2023-04-15T13:33:29;21.90;51.10
6462;DHT22;3264;42.862;25.098;2023-04-15T13:36:03;22.00;51.20
6462;DHT22;3264;42.862;25.098;2023-04-15T13:38:35;22.30;48.90
6462;DHT22;3264;42.862;25.098;2023-04-15T13:41:06;21.50;50.10
6462;DHT22;3264;42.862;25.098;2023-04-15T13:43:40;21.10;52.20
6462;DHT22;3264;42.862;25.098;2023-04-15T13:46:10;20.90;52.60
6462;DHT22;3264;42.862;25.098;2023-04-15T13:48:40;21.00;50.60
6462;DHT22;3264;42.862;25.098;2023-04-15T13:51:10;20.60;50.10
6462;DHT22;3264;42.862;25.098;2023-04-15T13:53:40;20.80;52.90
6462;DHT22;3264;42.862;25.098;2023-04-15T13:56:10;20.30;52.70
6462;DHT22;3264;42.862;25.098;2023-04-15T13:58:40;20.30;55.40
6462;DHT22;3264;42.862;25.098;2023-04-15T14:01:09;20.50;52.80
6462;DHT22;3264;42.862;25.098;2023-04-15T14:03:38;20.50;55.10
6462;DHT22;3264;42.862;25.098;2023-04-15T14:06:09;20.30;55.70
6462;DHT22;3264;42.862;25.098;2023-04-15T14:08:40;20.20;54.60
6462;DHT22;3264;42.862;25.098;2023-04-15T14:11:10;20.20;55.40
6462;DHT22;3264;42.862;25.098;2023-04-15T14:13:43;20.00;54.30
6462;DHT22;3264;42.862;25.098;2023-04-15T14:16:13;20.10;55.80
6462;DHT22;3264;42.862;25.098;2023-04-15T14:18:43;20.40;55.60
6462;DHT22;3264;42.862;25.098;2023-04-15T14:21:14;20.60;55.20
6462;DHT22;3264;42.862;25.098;2023-04-15T14:23:45;20.70;53.80
6462;DHT22;3264;42.862;25.098;2023-04-15T14:26:17;21.20;55.60
6462;DHT22;3264;42.862;25.098;2023-04-15T14:28:50;21.60;54.00
6462;DHT22;3264;42.862;25.098;2023-04-15T14:31:21;21.80;53.50
6462;DHT22;3264;42.862;25.098;2023-04-15T14:33:51;21.70;54.00
6462;DHT22;3264;42.862;25.098;2023-04-15T14:36:21;21.60;51.10
6462;DHT22;3264;42.862;25.098;2023-04-15T14:38:52;21.90;53.20
6462;DHT22;3264;42.862;25.098;2023-04-15T14:41:23;21.30;52.20
6462;DHT22;3264;42.862;25.098;2023-04-15T14:43:57;20.70;51.90
6462;DHT22;3264;42.862;25.098;2023-04-15T14:46:28;20.90;51.90
6462;DHT22;3264;42.862;25.098;2023-04-15T14:49:01;20.70;53.00
6462;DHT22;3264;42.862;25.098;2023-04-15T14:51:49;20.60;52.90
6462;DHT22;3264;42.862;25.098;2023-04-15T14:54:20;20.50;52.60
6462;DHT22;3264;42.862;25.098;2023-04-15T14:56:51;20.00;52.30
6462;DHT22;3264;42.862;25.098;2023-04-15T14:59:24;20.20;53.50
6462;DHT22;3264;42.862;25.098;2023-04-15T15:01:55;20.50;54.70
6462;DHT22;3264;42.862;25.098;2023-04-15T15:04:26;20.70;52.70
6462;DHT22;3264;42.862;25.098;2023-04-15T15:07:00;20.90;52.90
6462;DHT22;3264;42.862;25.098;2023-04-15T15:09:30;20.80;52.20
6462;DHT22;3264;42.862;25.098;2023-04-15T15:12:02;21.30;52.80
6462;DHT22;3264;42.862;25.098;2023-04-15T15:14:34;20.10;52.10
6462;DHT22;3264;42.862;25.098;2023-04-15T15:17:04;20.10;56.90
6462;DHT22;3264;42.862;25.098;2023-04-15T15:19:36;20.00;56.70
6462;DHT22;3264;42.862;25.098;2023-04-15T15:22:07;20.10;55.60
6462;DHT22;3264;42.862;25.098;2023-04-15T15:24:38;20.10;56.20
6462;DHT22;3264;42.862;25.098;2023-04-15T15:27:10;20.00;55.40
6462;DHT22;3264;42.862;25.098;2023-04-15T15:29:43;19.70;55.80
6462;DHT22;3264;42.862;25.098;2023-04-15T15:32:15;19.20;56.90
6462;DHT22;3264;42.862;25.098;2023-04-15T15:34:46;19.00;57.90
6462;DHT22;3264;42.862;25.098;2023-04-15T15:37:16;18.90;57.70
6462;DHT22;3264;42.862;25.098;2023-04-15T15:39:48;19.10;56.90
6462;DHT22;3264;42.862;25.098;2023-04-15T15:42:19;19.10;57.80
6462;DHT22;3264;42.862;25.098;2023-04-15T15:44:53;18.90;57.70
6462;DHT22;3264;42.862;25.098;2023-04-15T15:47:24;18.70;59.10
6462;DHT22;3264;42.862;25.098;2023-04-15T15:49:55;18.70;59.70
6462;DHT22;3264;42.862;25.098;2023-04-15T15:52:26;18.80;62.10
6462;DHT22;3264;42.862;25.098;2023-04-15T15:54:56;18.80;60.60
6462;DHT22;3264;42.862;25.098;2023-04-15T15:57:27;18.80;60.20
6462;DHT22;3264;42.862;25.098;2023-04-15T15:59:59;18.80;57.90
6462;DHT22;3264;42.862;25.098;2023-04-15T16:02:30;18.90;58.40
6462;DHT22;3264;42.862;25.098;2023-04-15T16:05:01;18.80;57.20
6462;DHT22;3264;42.862;25.098;2023-04-15T16:07:32;18.80;59.10
6462;DHT22;3264;42.862;25.098;2023-04-15T16:10:03;18.60;58.50
6462;DHT22;3264;42.862;25.098;2023-04-15T16:12:34;18.60;56.90
6462;DHT22;3264;42.862;25.098;2023-04-15T16:15:08;18.50;59.90